Meteo Giornale » Osservazioni meteo Italia » Capo Mele

ore: 08:55 - Osservazioni Meteo Capo Mele
Lat. 43° 57' N Lon. 8° 10' E Alt. 220 metri s.l.m.

molto_nuvoloso Europe/Rome

15 °C

Molto Nuvoloso

Temp. 24 Ore

14 °C

22 °C

Nord

14.8 Km/h

Dew point 13 °C

Umidità 87 %

Visibilità  8 Km

Il sole sorge alle ore 06:28

Il sole tramonta alle ore 20:22

Data e Ora Cielo e Fenomeni T °C DP °C Um. % Pres. hPa Vis. km Vento km/h
Oggi h: 08:55 molto_nuvoloso Molto Nuvoloso 15 13 87 1019 8 N 14.8
Oggi h: 07:55 poco_nuvoloso Poco Nuvoloso 14 13 93 1018 10 N 18.5
Oggi h: 06:55 sereno Sereno 15 14 93 1018 10 N 22.2
Oggi h: 04:55 sereno Sereno 16 15 93 1019 10 N 22.2
Oggi h: 03:55 sereno Sereno 16 15 93 1019 10 N/NE 18.5
Oggi h: 02:55 sereno Sereno 16 15 93 1019 10 N 20.3
Oggi h: 01:55 sereno Sereno 16 15 93 1019 10 N 16.7
Oggi h: 00:55 sereno Sereno 16 15 93 1019 10 N 14.8
Ieri h: 23:55 sereno Sereno 16 15 93 1019 10 N 13
Ieri h: 22:55 sereno Sereno 16 16 100 1018 10 N 11.1
Ieri h: 21:55 sereno Sereno 16 16 100 1018 10 N 18.5
Ieri h: 20:55 sereno Sereno 16 16 100 1018 10 N 16.7
Ieri h: 19:55 sereno Sereno 17 17 100 1017 10 N 14.8
Ieri h: 18:55 sereno Sereno 19 16 82 1017 10 N 13
Ieri h: 17:55 sereno Sereno 20 15 72 1018 10 N 13
Ieri h: 16:55 sereno Sereno 20 15 72 1018 10 N 11.1
Ieri h: 15:55 sereno Sereno 22 13 56 1018 10 N 14.8
Ieri h: 14:55 sereno Sereno 20 15 72 1018 10 N 16.7
Ieri h: 13:55 sereno Sereno 20 17 82 1018 10 N 18.5
Ieri h: 12:55 poco_nuvoloso Poco Nuvoloso 20 18 88 1019 10 N 18.5
Ieri h: 11:55 molto_nuvoloso Molto Nuvoloso 19 17 88 1018 10 N 18.5
Ieri h: 10:55 sereno Sereno 19 17 88 1018 10 N 18.5
Ieri h: 09:55 sereno Sereno 19 11 59 1018 10 N 18.5